createdAt,value
2023-08-31T00:00:12.883Z,98784.09
2023-08-31T00:02:42.567Z,98772.16
2023-08-31T00:05:11.776Z,98772.94
2023-08-31T00:07:42.630Z,98769.41
2023-08-31T00:10:13.032Z,98772.78
2023-08-31T00:12:41.830Z,98776.19
2023-08-31T00:15:12.084Z,98772.66
2023-08-31T00:17:40.790Z,98776.69
2023-08-31T00:20:13.164Z,98772.50
2023-08-31T00:22:43.398Z,98784.59
2023-08-31T00:25:12.107Z,98781.06
2023-08-31T00:27:41.951Z,98793.00
2023-08-31T00:30:15.181Z,98778.47
2023-08-31T00:32:44.652Z,98777.00
2023-08-31T00:35:13.493Z,98779.91
2023-08-31T00:37:43.634Z,98774.75
2023-08-31T00:40:15.313Z,98778.28
2023-08-31T00:42:44.074Z,98772.16
2023-08-31T00:45:12.832Z,98779.72
2023-08-31T00:47:42.904Z,98778.94
2023-08-31T00:50:12.530Z,98787.47
2023-08-31T00:52:45.375Z,98784.91
2023-08-31T00:55:14.392Z,98791.69
2023-08-31T00:57:43.473Z,98792.63
2023-08-31T01:00:15.280Z,98787.63
2023-08-31T01:02:56.142Z,98785.22
2023-08-31T01:05:37.408Z,98780.31
2023-08-31T01:08:20.984Z,98788.69
2023-08-31T01:11:03.190Z,98790.91
2023-08-31T01:13:35.094Z,98791.22
2023-08-31T01:16:10.826Z,98790.53
2023-08-31T01:18:42.695Z,98795.22
2023-08-31T01:21:23.837Z,98789.22
2023-08-31T01:23:59.437Z,98784.91
2023-08-31T01:26:28.942Z,98801.16
2023-08-31T01:28:58.259Z,98803.75
2023-08-31T01:31:26.964Z,98797.63
2023-08-31T01:33:55.651Z,98798.28
2023-08-31T01:36:31.914Z,98812.78
2023-08-31T01:39:15.551Z,98812.63
2023-08-31T01:41:52.981Z,98804.09
2023-08-31T01:44:22.811Z,98803.28
2023-08-31T01:46:55.795Z,98810.38
2023-08-31T01:49:27.412Z,98812.78
2023-08-31T01:51:56.041Z,98821.47
2023-08-31T01:54:26.089Z,98819.06
2023-08-31T01:56:55.792Z,98826.00
2023-08-31T01:59:24.556Z,98821.78
2023-08-31T02:01:53.549Z,98827.75
2023-08-31T02:04:22.394Z,98819.06
2023-08-31T02:06:51.231Z,98816.63
2023-08-31T02:09:20.148Z,98821.78
2023-08-31T02:11:50.158Z,98815.00
2023-08-31T02:14:19.028Z,98818.56
2023-08-31T02:16:46.968Z,98815.16
2023-08-31T02:19:15.799Z,98816.78
2023-08-31T02:21:44.842Z,98824.38
2023-08-31T02:24:15.053Z,98817.44
2023-08-31T02:26:43.814Z,98819.06
2023-08-31T02:29:13.920Z,98823.25
2023-08-31T02:31:43.354Z,98826.63
2023-08-31T02:34:11.953Z,98830.03
2023-08-31T02:36:40.615Z,98830.84
2023-08-31T02:39:09.251Z,98828.13
2023-08-31T02:41:39.212Z,98829.75
2023-08-31T02:44:07.951Z,98829.75
2023-08-31T02:46:38.048Z,98836.69
2023-08-31T02:49:07.660Z,98835.53
2023-08-31T02:51:36.805Z,98838.28
2023-08-31T02:54:05.750Z,98827.16
2023-08-31T02:56:34.507Z,98828.94
2023-08-31T02:59:03.191Z,98823.09
2023-08-31T03:01:31.952Z,98830.19
2023-08-31T03:04:02.421Z,98822.59
2023-08-31T03:06:31.234Z,98830.19
2023-08-31T03:08:59.881Z,98833.72
2023-08-31T03:11:29.558Z,98821.63
2023-08-31T03:13:59.130Z,98833.72
2023-08-31T03:16:27.999Z,98836.94
2023-08-31T03:18:56.741Z,98843.22
2023-08-31T03:21:26.850Z,98836.47
2023-08-31T03:23:55.652Z,98847.56
2023-08-31T03:26:24.456Z,98845.94
2023-08-31T03:28:53.377Z,98855.31
2023-08-31T03:31:22.940Z,98861.41
2023-08-31T03:33:52.893Z,98859.66
2023-08-31T03:36:21.494Z,98864.97
2023-08-31T03:38:54.823Z,98859.81
2023-08-31T03:41:23.432Z,98870.94
2023-08-31T03:43:52.388Z,98875.28
2023-08-31T03:46:25.393Z,98873.66
2023-08-31T03:48:54.197Z,98872.03
2023-08-31T03:51:22.940Z,98881.56
2023-08-31T03:53:55.841Z,98875.72
2023-08-31T03:56:25.451Z,98878.28
2023-08-31T03:58:54.132Z,98873.94
2023-08-31T04:01:22.852Z,98876.66
2023-08-31T04:03:51.754Z,98878.44
2023-08-31T04:06:20.464Z,98878.59
2023-08-31T04:08:49.174Z,98888.09
2023-08-31T04:11:19.379Z,98884.56
2023-08-31T04:13:47.996Z,98889.88
2023-08-31T04:16:17.109Z,98890.00
2023-08-31T04:18:49.333Z,98887.59
2023-08-31T04:21:18.017Z,98892.75
2023-08-31T04:23:46.869Z,98897.06
2023-08-31T04:26:18.664Z,98900.59
2023-08-31T04:28:48.997Z,98904.13
2023-08-31T04:31:17.866Z,98907.50
2023-08-31T04:33:48.346Z,98902.22
2023-08-31T04:36:17.225Z,98908.31
2023-08-31T04:38:46.045Z,98910.91
2023-08-31T04:41:14.804Z,98916.84
2023-08-31T04:43:43.969Z,98909.28
2023-08-31T04:46:14.092Z,98923.94
2023-08-31T04:48:42.830Z,98921.50
2023-08-31T04:51:31.201Z,98919.06
2023-08-31T04:53:59.890Z,98920.69
2023-08-31T04:56:33.056Z,98916.47
2023-08-31T04:59:02.532Z,98922.47
2023-08-31T05:01:32.900Z,98917.47
2023-08-31T05:04:01.681Z,98916.63
2023-08-31T05:06:30.293Z,98923.41
2023-08-31T05:08:59.090Z,98925.19
2023-08-31T05:11:27.697Z,98934.03
2023-08-31T05:13:56.387Z,98937.56
2023-08-31T05:16:25.174Z,98936.88
2023-08-31T05:18:55.342Z,98936.22
2023-08-31T05:21:24.012Z,98941.53
2023-08-31T05:23:52.680Z,98939.09
2023-08-31T05:26:21.538Z,98943.56
2023-08-31T05:28:50.162Z,98939.38
2023-08-31T05:31:18.851Z,98957.41
2023-08-31T05:33:47.518Z,98956.59
2023-08-31T05:36:17.705Z,98954.81
2023-08-31T05:38:46.385Z,98960.66
2023-08-31T05:41:15.206Z,98965.53
2023-08-31T05:43:43.835Z,98968.91
2023-08-31T05:46:12.862Z,98973.09
2023-08-31T05:48:41.717Z,98972.31
2023-08-31T05:51:10.416Z,98967.16
2023-08-31T05:53:40.399Z,98967.94
2023-08-31T05:56:09.384Z,98973.94
2023-08-31T05:58:39.316Z,98984.25
2023-08-31T06:01:08.332Z,98972.97
2023-08-31T06:03:37.609Z,98978.78
2023-08-31T06:06:06.391Z,98982.03
2023-08-31T06:08:35.099Z,98977.69
2023-08-31T06:11:05.328Z,98982.03
2023-08-31T06:13:34.118Z,98983.66
2023-08-31T06:16:02.828Z,98986.38
2023-08-31T06:18:31.513Z,98993.16
2023-08-31T06:21:00.311Z,98983.66
2023-08-31T06:23:28.989Z,98985.28
2023-08-31T06:25:57.744Z,98983.34
2023-08-31T06:28:27.820Z,98988.41
2023-08-31T06:30:56.409Z,98993.41
2023-08-31T06:33:25.595Z,98997.63
2023-08-31T06:35:57.092Z,98998.28
2023-08-31T06:38:28.766Z,99007.50
2023-08-31T06:41:00.366Z,99006.41
2023-08-31T06:43:30.785Z,99010.59
2023-08-31T06:46:10.410Z,99010.31
2023-08-31T06:48:48.159Z,99014.53
2023-08-31T06:51:17.266Z,99012.59
2023-08-31T06:53:46.432Z,99008.13
2023-08-31T06:56:15.135Z,99013.94
2023-08-31T06:58:46.158Z,99014.63
2023-08-31T07:01:16.183Z,99020.44
2023-08-31T07:03:45.293Z,99025.28
2023-08-31T07:06:14.245Z,99031.91
2023-08-31T07:08:46.313Z,99023.09
2023-08-31T07:11:15.411Z,99027.28
2023-08-31T07:13:45.519Z,99038.25
2023-08-31T07:16:14.269Z,99037.47
2023-08-31T07:18:42.914Z,99039.91
2023-08-31T07:21:12.648Z,99039.91
2023-08-31T07:23:43.208Z,99045.06
2023-08-31T07:26:11.967Z,99045.88
2023-08-31T07:28:40.873Z,99046.69
2023-08-31T07:31:10.973Z,99043.31
2023-08-31T07:33:40.109Z,99060.53
2023-08-31T07:36:09.429Z,99063.25
2023-08-31T07:38:38.317Z,99067.47
2023-08-31T07:41:07.256Z,99053.75
2023-08-31T07:43:36.002Z,99059.72
2023-08-31T07:46:04.675Z,99061.34
2023-08-31T07:48:34.809Z,99061.34
2023-08-31T07:51:04.504Z,99068.25
2023-08-31T07:53:33.216Z,99069.91
2023-08-31T07:56:02.009Z,99068.13
2023-08-31T07:58:30.738Z,99075.72
2023-08-31T08:00:59.900Z,99075.72
2023-08-31T08:03:28.848Z,99084.28
2023-08-31T08:06:00.056Z,99091.88
2023-08-31T08:08:29.862Z,99092.81
2023-08-31T08:10:58.787Z,99086.72
2023-08-31T08:13:27.545Z,99096.06
2023-08-31T08:15:56.243Z,99097.72
2023-08-31T08:18:25.404Z,99099.31
2023-08-31T08:20:54.140Z,99094.00
2023-08-31T08:23:24.678Z,99104.22
2023-08-31T08:25:53.409Z,99103.91
2023-08-31T08:28:22.190Z,99110.53
2023-08-31T08:30:51.452Z,99112.97
2023-08-31T08:33:20.414Z,99114.72
2023-08-31T08:35:49.402Z,99111.19
2023-08-31T08:38:18.058Z,99106.03
2023-08-31T08:40:48.290Z,99114.59
2023-08-31T08:43:17.155Z,99117.19
2023-08-31T08:45:49.204Z,99104.94
2023-08-31T08:48:18.552Z,99111.88
2023-08-31T08:50:47.781Z,99113.63
2023-08-31T08:53:16.633Z,99119.63
2023-08-31T08:55:45.409Z,99118.63
2023-08-31T08:58:15.821Z,99116.91
2023-08-31T09:00:45.453Z,99116.91
2023-08-31T09:03:14.385Z,99122.06
2023-08-31T09:05:43.233Z,99118.53
2023-08-31T09:08:13.616Z,99126.25
2023-08-31T09:10:44.327Z,99133.03
2023-08-31T09:13:17.431Z,99132.06
2023-08-31T09:15:48.680Z,99130.19
2023-08-31T09:18:19.154Z,99131.78
2023-08-31T09:20:49.467Z,99128.25
2023-08-31T09:23:19.199Z,99132.16
2023-08-31T09:25:49.893Z,99125.91
2023-08-31T09:28:23.476Z,99110.00
2023-08-31T09:30:53.886Z,99116.34
2023-08-31T09:33:23.481Z,99114.28
2023-08-31T09:35:54.884Z,99107.88
2023-08-31T09:38:23.637Z,99106.63
2023-08-31T09:40:52.377Z,99103.16
2023-08-31T09:43:25.846Z,99108.38
2023-08-31T09:45:55.686Z,99110.38
2023-08-31T09:48:25.636Z,99112.66
2023-08-31T09:50:55.184Z,99109.78
2023-08-31T09:53:27.819Z,99110.44
2023-08-31T09:56:00.179Z,99114.50
2023-08-31T09:58:32.242Z,99117.75
2023-08-31T10:01:03.548Z,99120.03
2023-08-31T10:03:33.964Z,99114.56
2023-08-31T10:06:04.980Z,99118.63
2023-08-31T10:08:36.011Z,99126.88
2023-08-31T10:11:08.047Z,99122.22
2023-08-31T10:13:40.935Z,99125.19
2023-08-31T10:16:09.780Z,99112.31
2023-08-31T10:18:38.780Z,99118.88
2023-08-31T10:21:07.725Z,99117.34
2023-08-31T10:23:39.324Z,99114.34
2023-08-31T10:26:08.422Z,99108.28
2023-08-31T10:28:45.555Z,99116.06
2023-08-31T10:31:19.504Z,99117.22
2023-08-31T10:33:58.806Z,99105.78
2023-08-31T10:36:39.978Z,99109.09
2023-08-31T10:39:14.735Z,99110.44
2023-08-31T10:41:44.036Z,99108.66
2023-08-31T10:44:24.998Z,99104.78
2023-08-31T10:46:55.512Z,99099.28
2023-08-31T10:49:26.738Z,99103.19
2023-08-31T10:51:59.029Z,99103.53
2023-08-31T10:54:29.461Z,99094.63
2023-08-31T10:57:06.581Z,99087.81
2023-08-31T10:59:51.479Z,99093.31
2023-08-31T11:02:36.273Z,99094.63
2023-08-31T11:05:15.917Z,99096.06
2023-08-31T11:07:47.853Z,99095.06
2023-08-31T11:10:20.763Z,99099.09
2023-08-31T11:12:51.793Z,99098.91
2023-08-31T11:15:23.679Z,99102.00
2023-08-31T11:17:53.739Z,99090.50
2023-08-31T11:20:29.523Z,99094.50
2023-08-31T11:22:59.023Z,99098.50
2023-08-31T11:25:27.780Z,99097.19
2023-08-31T11:27:57.785Z,99089.91
2023-08-31T11:30:33.891Z,99084.22
2023-08-31T11:33:07.544Z,99085.50
2023-08-31T11:35:38.408Z,99089.22
2023-08-31T11:38:08.133Z,99082.59
2023-08-31T11:40:37.750Z,99077.56
2023-08-31T11:43:07.857Z,99081.94
2023-08-31T11:45:39.388Z,99077.72
2023-08-31T11:48:08.935Z,99079.34
2023-08-31T11:50:40.789Z,99079.34
2023-08-31T11:53:15.005Z,99070.78
2023-08-31T11:55:53.044Z,99077.72
2023-08-31T11:58:21.892Z,99087.41
2023-08-31T12:01:02.325Z,99090.31
2023-08-31T12:03:50.688Z,99077.03
2023-08-31T12:06:20.432Z,99077.31
2023-08-31T12:08:49.544Z,99081.84
2023-08-31T12:11:18.249Z,99080.38
2023-08-31T12:13:48.034Z,99094.28
2023-08-31T12:16:18.725Z,99081.66
2023-08-31T12:18:48.289Z,99086.16
2023-08-31T12:21:17.083Z,99091.66
2023-08-31T12:23:45.980Z,99091.16
2023-08-31T12:26:14.741Z,99095.50
2023-08-31T12:28:43.537Z,99093.06
2023-08-31T12:31:12.264Z,99089.03
2023-08-31T12:33:42.412Z,99088.22
2023-08-31T12:36:14.166Z,99088.38
2023-08-31T12:38:43.307Z,99095.31
2023-08-31T12:41:12.054Z,99094.66
2023-08-31T12:43:40.882Z,99090.13
2023-08-31T12:46:10.703Z,99102.09
2023-08-31T12:48:39.450Z,99102.09
2023-08-31T12:51:09.565Z,99093.38
2023-08-31T12:53:41.190Z,99097.59
2023-08-31T12:56:09.917Z,99103.72
2023-08-31T12:58:39.674Z,99108.91
2023-08-31T13:01:08.871Z,99104.69
2023-08-31T13:03:37.813Z,99105.63
2023-08-31T13:06:08.082Z,99102.41
2023-08-31T13:08:37.339Z,99107.75
2023-08-31T13:11:06.252Z,99097.41
2023-08-31T13:13:35.229Z,99109.50
2023-08-31T13:16:04.172Z,99100.00
2023-08-31T13:18:33.806Z,99093.19
2023-08-31T13:21:03.753Z,99091.41
2023-08-31T13:23:33.941Z,99094.00
2023-08-31T13:26:03.384Z,99081.06
2023-08-31T13:28:32.265Z,99080.91
2023-08-31T13:31:01.829Z,99081.72
2023-08-31T13:33:31.038Z,99079.16
2023-08-31T13:36:01.929Z,99074.63
2023-08-31T13:38:31.449Z,99078.03
2023-08-31T13:41:06.228Z,99081.41
2023-08-31T13:43:35.564Z,99084.00
2023-08-31T13:46:05.581Z,99078.19
2023-08-31T13:48:34.658Z,99087.53
2023-08-31T13:51:04.007Z,99081.41
2023-08-31T13:53:32.643Z,99076.25
2023-08-31T13:56:02.826Z,99066.88
2023-08-31T13:58:31.566Z,99078.03
2023-08-31T14:01:02.840Z,99065.13
2023-08-31T14:03:31.824Z,99064.13
2023-08-31T14:06:00.774Z,99075.28
2023-08-31T14:08:29.392Z,99077.88
2023-08-31T14:10:58.264Z,99065.91
2023-08-31T14:13:29.174Z,99060.59
2023-08-31T14:16:02.222Z,99062.38
2023-08-31T14:18:32.991Z,99062.38
2023-08-31T14:21:02.213Z,99066.72
2023-08-31T14:23:32.655Z,99065.91
2023-08-31T14:26:05.297Z,99067.53
2023-08-31T14:28:35.805Z,99069.28
2023-08-31T14:31:07.097Z,99063.16
2023-08-31T14:33:35.843Z,99048.50
2023-08-31T14:36:05.060Z,99066.44
2023-08-31T14:38:35.422Z,99054.13
2023-08-31T14:41:05.602Z,99065.31
2023-08-31T14:43:35.878Z,99061.72
2023-08-31T14:46:05.165Z,99078.88
2023-08-31T14:48:34.320Z,99073.72
2023-08-31T14:51:04.760Z,99083.09
2023-08-31T14:53:35.139Z,99081.31
2023-08-31T14:56:05.095Z,99085.69
2023-08-31T14:58:35.505Z,99087.31
2023-08-31T15:01:04.830Z,99089.88
2023-08-31T15:03:33.711Z,99084.72
2023-08-31T15:06:02.441Z,99080.50
2023-08-31T15:08:39.107Z,99081.31
2023-08-31T15:11:07.881Z,99077.91
2023-08-31T15:13:37.937Z,99083.09
2023-08-31T15:16:06.950Z,99076.13
2023-08-31T15:18:35.655Z,99083.88
2023-08-31T15:21:05.092Z,99077.91
2023-08-31T15:23:33.833Z,99068.53
2023-08-31T15:26:07.079Z,99070.16
2023-08-31T15:28:37.689Z,99060.78
2023-08-31T15:31:06.489Z,99069.34
2023-08-31T15:33:35.908Z,99064.16
2023-08-31T15:36:06.801Z,99063.38
2023-08-31T15:38:37.420Z,99069.34
2023-08-31T15:41:08.645Z,99072.91
2023-08-31T15:43:39.609Z,99082.41
2023-08-31T15:46:08.417Z,99075.50
2023-08-31T15:48:37.144Z,99078.06
2023-08-31T15:51:05.851Z,99070.47
2023-08-31T15:53:35.907Z,99073.06
2023-08-31T15:56:05.848Z,99075.66
2023-08-31T15:58:34.786Z,99080.66
2023-08-31T16:01:05.810Z,99083.41
2023-08-31T16:03:35.739Z,99078.22
2023-08-31T16:06:09.210Z,99073.19
2023-08-31T16:08:38.004Z,99074.97
2023-08-31T16:11:06.983Z,99083.53
2023-08-31T16:13:37.159Z,99076.78
2023-08-31T16:16:07.632Z,99076.78
2023-08-31T16:18:36.332Z,99088.88
2023-08-31T16:21:05.863Z,99084.69
2023-08-31T16:23:34.695Z,99089.03
2023-08-31T16:26:03.746Z,99082.22
2023-08-31T16:28:32.669Z,99082.09
2023-08-31T16:31:02.155Z,99084.00
2023-08-31T16:33:32.449Z,99078.03
2023-08-31T16:36:01.714Z,99077.22
2023-08-31T16:38:30.570Z,99082.53
2023-08-31T16:40:59.828Z,99069.59
2023-08-31T16:43:28.817Z,99081.72
2023-08-31T16:46:04.467Z,99086.91
2023-08-31T16:48:34.837Z,99090.44
2023-08-31T16:51:03.845Z,99090.44
2023-08-31T16:53:32.707Z,99088.66
2023-08-31T16:56:01.417Z,99088.81
2023-08-31T16:58:30.069Z,99093.19
2023-08-31T17:00:58.733Z,99092.22
2023-08-31T17:03:27.886Z,99094.94
2023-08-31T17:05:59.541Z,99095.94
2023-08-31T17:08:28.256Z,99090.75
2023-08-31T17:10:57.001Z,99094.31
2023-08-31T17:13:26.079Z,99086.53
2023-08-31T17:15:54.828Z,99092.66
2023-08-31T17:18:24.196Z,99099.63
2023-08-31T17:20:52.834Z,99091.03
2023-08-31T17:23:22.845Z,99099.75
2023-08-31T17:25:52.206Z,99104.91
2023-08-31T17:28:21.083Z,99103.28
2023-08-31T17:30:51.878Z,99101.66
2023-08-31T17:33:21.514Z,99100.88
2023-08-31T17:35:50.144Z,99102.63
2023-08-31T17:38:18.935Z,99101.66
2023-08-31T17:40:50.105Z,99105.19
2023-08-31T17:43:19.210Z,99110.38
2023-08-31T17:45:48.313Z,99107.78
2023-08-31T17:48:17.535Z,99119.09
2023-08-31T17:50:46.541Z,99120.06
2023-08-31T17:53:15.184Z,99120.06
2023-08-31T17:55:45.291Z,99138.16
2023-08-31T17:58:15.612Z,99124.44
2023-08-31T18:00:44.589Z,99139.09
2023-08-31T18:03:13.898Z,99138.47
2023-08-31T18:05:52.392Z,99140.22
2023-08-31T18:08:23.136Z,99147.16
2023-08-31T18:10:53.718Z,99148.13
2023-08-31T18:13:23.884Z,99150.72
2023-08-31T18:15:53.403Z,99156.69
2023-08-31T18:18:22.507Z,99162.00
2023-08-31T18:20:51.529Z,99163.78
2023-08-31T18:23:20.692Z,99174.28
2023-08-31T18:25:49.469Z,99176.84
2023-08-31T18:28:18.662Z,99182.97
2023-08-31T18:30:57.490Z,99174.59
2023-08-31T18:33:27.382Z,99179.06
2023-08-31T18:35:58.219Z,99187.78
2023-08-31T18:38:28.155Z,99194.72
2023-08-31T18:40:58.096Z,99196.50
2023-08-31T18:43:27.877Z,99191.47
2023-08-31T18:45:58.063Z,99200.31
2023-08-31T18:48:27.152Z,99195.31
2023-08-31T18:51:00.210Z,99192.06
2023-08-31T18:53:29.283Z,99193.19
2023-08-31T18:56:00.999Z,99195.75
2023-08-31T18:58:30.738Z,99192.38
2023-08-31T19:01:01.814Z,99195.09
2023-08-31T19:03:31.722Z,99204.63
2023-08-31T19:06:00.527Z,99210.75
2023-08-31T19:08:29.291Z,99199.59
2023-08-31T19:10:58.430Z,99201.38
2023-08-31T19:13:27.484Z,99213.47
2023-08-31T19:15:56.220Z,99215.41
2023-08-31T19:18:26.349Z,99215.41
2023-08-31T19:21:00.098Z,99218.16
2023-08-31T19:23:32.571Z,99217.31
2023-08-31T19:26:06.457Z,99223.31
2023-08-31T19:28:36.576Z,99214.72
2023-08-31T19:31:05.806Z,99220.72
2023-08-31T19:33:35.965Z,99222.47
2023-08-31T19:36:05.496Z,99226.84
2023-08-31T19:38:34.762Z,99221.69
2023-08-31T19:41:03.479Z,99214.09
2023-08-31T19:43:32.387Z,99218.41
2023-08-31T19:46:01.126Z,99221.94
2023-08-31T19:48:30.033Z,99215.34
2023-08-31T19:51:06.822Z,99220.63
2023-08-31T19:53:35.647Z,99215.59
2023-08-31T19:56:05.399Z,99216.59
2023-08-31T19:58:35.229Z,99216.59
2023-08-31T20:01:04.307Z,99218.19
2023-08-31T20:03:39.723Z,99220.13
2023-08-31T20:06:10.224Z,99226.09
2023-08-31T20:08:39.145Z,99224.44
2023-08-31T20:11:08.267Z,99229.63
2023-08-31T20:13:37.027Z,99225.59
2023-08-31T20:16:06.766Z,99220.41
2023-08-31T20:18:35.526Z,99209.25
2023-08-31T20:21:05.045Z,99209.41
2023-08-31T20:23:35.515Z,99211.19
2023-08-31T20:26:05.241Z,99225.84
2023-08-31T20:28:33.993Z,99218.25
2023-08-31T20:31:02.824Z,99222.63
2023-08-31T20:33:31.586Z,99225.19
2023-08-31T20:36:09.208Z,99217.44
2023-08-31T20:38:40.306Z,99215.03
2023-08-31T20:41:09.858Z,99219.34
2023-08-31T20:43:38.507Z,99222.09
2023-08-31T20:46:10.187Z,99228.19
2023-08-31T20:48:39.864Z,99224.97
2023-08-31T20:51:12.181Z,99218.97
2023-08-31T20:53:42.289Z,99219.81
2023-08-31T20:56:13.476Z,99221.56
2023-08-31T20:58:42.671Z,99226.72
2023-08-31T21:01:14.001Z,99220.75
2023-08-31T21:03:44.483Z,99229.44
2023-08-31T21:06:13.734Z,99227.00
2023-08-31T21:08:44.314Z,99228.66
2023-08-31T21:11:13.654Z,99218.47
2023-08-31T21:13:42.528Z,99227.00
2023-08-31T21:16:11.839Z,99231.22
2023-08-31T21:18:40.855Z,99221.84
2023-08-31T21:21:10.111Z,99229.59
2023-08-31T21:23:39.460Z,99224.56
2023-08-31T21:26:10.251Z,99220.22
2023-08-31T21:28:39.470Z,99227.16
2023-08-31T21:31:08.330Z,99223.78
2023-08-31T21:33:37.131Z,99225.69
2023-08-31T21:36:06.940Z,99230.03
2023-08-31T21:38:35.968Z,99230.84
2023-08-31T21:41:06.886Z,99231.63
2023-08-31T21:43:37.350Z,99224.03
2023-08-31T21:46:06.147Z,99225.03
2023-08-31T21:48:34.938Z,99219.19
2023-08-31T21:51:03.576Z,99223.53
2023-08-31T21:53:32.620Z,99221.13
2023-08-31T21:56:05.483Z,99214.28
2023-08-31T21:58:35.984Z,99220.41
2023-08-31T22:01:04.785Z,99220.53
2023-08-31T22:03:34.307Z,99218.91
2023-08-31T22:06:10.430Z,99223.28
2023-08-31T22:08:39.337Z,99219.22
2023-08-31T22:11:08.804Z,99223.56
2023-08-31T22:13:39.091Z,99224.78
2023-08-31T22:16:19.598Z,99227.34
2023-08-31T22:18:56.794Z,99219.75
2023-08-31T22:21:27.583Z,99217.34
2023-08-31T22:23:56.649Z,99216.53
2023-08-31T22:26:25.508Z,99220.75
2023-08-31T22:28:55.711Z,99207.00
2023-08-31T22:31:24.581Z,99205.38
2023-08-31T22:33:53.246Z,99208.78
2023-08-31T22:36:23.186Z,99213.25
2023-08-31T22:38:52.322Z,99216.69
2023-08-31T22:41:21.350Z,99207.31
2023-08-31T22:43:50.022Z,99203.91
2023-08-31T22:46:20.048Z,99213.41
2023-08-31T22:48:48.881Z,99195.34
2023-08-31T22:51:17.564Z,99208.09
2023-08-31T22:53:46.168Z,99206.50
2023-08-31T22:56:15.223Z,99200.50
2023-08-31T22:58:43.927Z,99207.59
2023-08-31T23:01:12.726Z,99197.28
2023-08-31T23:03:43.421Z,99198.22
2023-08-31T23:06:12.069Z,99208.41
2023-08-31T23:08:41.333Z,99199.03
2023-08-31T23:11:11.203Z,99193.06
2023-08-31T23:13:40.730Z,99195.50
2023-08-31T23:16:09.824Z,99189.53
2023-08-31T23:18:38.573Z,99187.75
2023-08-31T23:21:11.321Z,99185.16
2023-08-31T23:23:40.093Z,99178.22
2023-08-31T23:26:09.086Z,99172.28
2023-08-31T23:28:38.432Z,99171.47
2023-08-31T23:31:07.148Z,99159.50
2023-08-31T23:33:36.365Z,99164.69
2023-08-31T23:36:05.304Z,99162.25
2023-08-31T23:38:35.360Z,99156.25
2023-08-31T23:41:04.055Z,99153.66
2023-08-31T23:43:33.085Z,99154.34
2023-08-31T23:46:01.759Z,99154.34
2023-08-31T23:48:30.457Z,99154.34
2023-08-31T23:50:59.057Z,99146.47
2023-08-31T23:53:27.879Z,99144.69
2023-08-31T23:55:57.896Z,99152.44
2023-08-31T23:58:26.540Z,99149.84
